createdAt,value
2017-10-03T00:02:00.366Z,13.30
2017-10-03T00:04:28.599Z,13.30
2017-10-03T00:06:56.040Z,13.30
2017-10-03T00:09:23.480Z,13.30
2017-10-03T00:11:50.952Z,13.00
2017-10-03T00:14:18.390Z,12.90
2017-10-03T00:16:45.829Z,12.90
2017-10-03T00:19:13.291Z,12.90
2017-10-03T00:21:40.731Z,12.80
2017-10-03T00:24:08.204Z,12.80
2017-10-03T00:26:35.650Z,12.80
2017-10-03T00:29:03.113Z,12.80
2017-10-03T00:31:30.549Z,12.80
2017-10-03T00:33:58.786Z,12.90
2017-10-03T00:36:26.220Z,12.90
2017-10-03T00:38:53.664Z,12.90
2017-10-03T00:41:21.147Z,12.70
2017-10-03T00:43:48.594Z,12.80
2017-10-03T00:46:16.056Z,12.80
2017-10-03T00:48:43.499Z,12.80
2017-10-03T00:51:10.963Z,12.70
2017-10-03T00:53:38.407Z,12.60
2017-10-03T00:56:05.873Z,12.60
2017-10-03T00:58:33.332Z,12.60
2017-10-03T01:01:00.779Z,12.60
2017-10-03T01:03:28.243Z,12.60
2017-10-03T01:05:55.682Z,12.60
2017-10-03T01:08:23.145Z,12.70
2017-10-03T01:10:50.600Z,12.80
2017-10-03T01:13:18.055Z,12.80
2017-10-03T01:15:45.543Z,12.80
2017-10-03T01:18:12.988Z,12.70
2017-10-03T01:20:40.459Z,12.80
2017-10-03T01:23:07.903Z,12.70
2017-10-03T01:25:35.657Z,12.60
2017-10-03T01:28:03.127Z,12.60
2017-10-03T01:30:32.223Z,12.50
2017-10-03T01:32:59.754Z,12.50
2017-10-03T01:35:27.216Z,12.60
2017-10-03T01:38:06.453Z,12.50
2017-10-03T01:40:33.947Z,12.50
2017-10-03T01:43:01.488Z,12.40
2017-10-03T01:45:28.931Z,12.40
2017-10-03T01:47:56.384Z,12.40
2017-10-03T01:50:23.820Z,12.30
2017-10-03T01:52:51.284Z,12.40
2017-10-03T01:55:18.718Z,12.40
2017-10-03T01:57:46.175Z,12.30
2017-10-03T02:00:13.640Z,12.40
2017-10-03T02:02:41.100Z,12.40
2017-10-03T02:05:09.407Z,12.40
2017-10-03T02:07:36.867Z,12.30
2017-10-03T02:10:04.302Z,12.30
2017-10-03T02:12:31.748Z,12.30
2017-10-03T02:14:59.207Z,12.30
2017-10-03T02:17:26.675Z,12.20
2017-10-03T02:19:54.107Z,12.20
2017-10-03T02:22:21.583Z,12.20
2017-10-03T02:24:49.955Z,12.20
2017-10-03T02:27:17.395Z,12.20
2017-10-03T02:29:44.846Z,12.20
2017-10-03T02:32:12.311Z,12.10
2017-10-03T02:34:39.763Z,12.10
2017-10-03T02:37:07.312Z,12.00
2017-10-03T02:39:34.759Z,12.00
2017-10-03T02:42:02.989Z,12.00
2017-10-03T02:44:30.432Z,12.00
2017-10-03T02:46:57.885Z,12.00
2017-10-03T02:49:25.328Z,12.00
2017-10-03T02:51:52.788Z,12.10
2017-10-03T02:54:20.247Z,12.10
2017-10-03T02:56:47.714Z,12.10
2017-10-03T02:59:15.183Z,12.10
2017-10-03T03:01:42.617Z,12.10
2017-10-03T03:04:10.083Z,11.90
2017-10-03T03:06:37.527Z,12.00
2017-10-03T03:09:04.971Z,12.00
2017-10-03T03:11:32.431Z,12.00
2017-10-03T03:13:59.875Z,12.00
2017-10-03T03:16:27.335Z,12.00
2017-10-03T03:18:54.796Z,12.00
2017-10-03T03:21:22.260Z,12.10
2017-10-03T03:23:49.705Z,12.00
2017-10-03T03:26:17.180Z,12.10
2017-10-03T03:28:44.636Z,12.10
2017-10-03T03:31:12.104Z,12.10
2017-10-03T03:33:39.560Z,12.20
2017-10-03T03:36:07.020Z,12.10
2017-10-03T03:38:34.475Z,12.10
2017-10-03T03:41:01.917Z,12.10
2017-10-03T03:43:29.462Z,12.10
2017-10-03T03:45:56.903Z,12.00
2017-10-03T03:48:24.355Z,12.00
2017-10-03T03:50:51.787Z,12.00
2017-10-03T03:53:19.256Z,11.90
2017-10-03T03:55:47.483Z,12.00
2017-10-03T03:58:14.920Z,11.90
2017-10-03T04:00:42.380Z,12.00
2017-10-03T04:03:09.835Z,12.00
2017-10-03T04:05:37.296Z,12.00
2017-10-03T04:08:04.731Z,11.90
2017-10-03T04:10:32.202Z,11.90
2017-10-03T04:12:59.658Z,11.90
2017-10-03T04:15:27.130Z,11.90
2017-10-03T04:17:54.576Z,11.90
2017-10-03T04:20:22.020Z,11.90
2017-10-03T04:22:49.516Z,11.90
2017-10-03T04:25:17.024Z,11.90
2017-10-03T04:27:45.251Z,11.90
2017-10-03T04:30:12.684Z,11.80
2017-10-03T04:32:40.117Z,11.90
2017-10-03T04:35:08.191Z,11.90
2017-10-03T04:37:35.629Z,11.90
2017-10-03T04:40:03.607Z,12.00
2017-10-03T04:42:31.071Z,12.00
2017-10-03T04:44:58.512Z,12.00
2017-10-03T04:47:25.974Z,12.00
2017-10-03T04:49:53.662Z,12.00
2017-10-03T04:52:21.101Z,12.00
2017-10-03T04:54:48.547Z,12.00
2017-10-03T04:57:15.992Z,12.00
2017-10-03T04:59:44.220Z,12.00
2017-10-03T05:02:11.659Z,12.00
2017-10-03T05:04:39.119Z,12.00
2017-10-03T05:07:06.560Z,12.00
2017-10-03T05:09:34.019Z,12.10
2017-10-03T05:12:01.467Z,12.00
2017-10-03T05:14:28.903Z,12.00
2017-10-03T05:16:56.359Z,12.00
2017-10-03T05:19:24.584Z,12.00
2017-10-03T05:21:52.048Z,12.00
2017-10-03T05:24:19.483Z,12.00
2017-10-03T05:26:46.955Z,12.00
2017-10-03T05:29:15.178Z,12.00
2017-10-03T05:31:43.381Z,12.00
2017-10-03T05:34:10.840Z,11.90
2017-10-03T05:36:38.279Z,12.00
2017-10-03T05:39:05.835Z,12.00
2017-10-03T05:41:33.331Z,11.90
2017-10-03T05:44:00.787Z,11.90
2017-10-03T05:46:29.048Z,11.90
2017-10-03T05:48:56.506Z,12.00
2017-10-03T05:51:23.971Z,12.00
2017-10-03T05:53:51.412Z,12.00
2017-10-03T05:56:18.884Z,12.00
2017-10-03T05:58:47.082Z,12.00
2017-10-03T06:01:14.531Z,12.00
2017-10-03T06:03:41.989Z,12.00
2017-10-03T06:06:09.419Z,12.00
2017-10-03T06:08:36.876Z,11.90
2017-10-03T06:11:04.316Z,12.00
2017-10-03T06:13:31.772Z,12.00
2017-10-03T06:15:59.216Z,12.00
2017-10-03T06:18:27.387Z,12.00
2017-10-03T06:20:54.826Z,12.00
2017-10-03T06:23:22.271Z,12.00
2017-10-03T06:25:50.491Z,12.10
2017-10-03T06:28:18.072Z,12.10
2017-10-03T06:30:45.527Z,12.00
2017-10-03T06:33:12.987Z,12.10
2017-10-03T06:35:41.948Z,12.00
2017-10-03T06:38:09.387Z,12.00
2017-10-03T06:40:36.844Z,12.00
2017-10-03T06:43:04.987Z,12.10
2017-10-03T06:45:33.224Z,12.10
2017-10-03T06:48:00.695Z,12.10
2017-10-03T06:50:28.136Z,12.10
2017-10-03T06:52:55.627Z,12.10
2017-10-03T06:55:23.835Z,12.20
2017-10-03T06:57:51.308Z,12.10
2017-10-03T07:00:18.760Z,12.10
2017-10-03T07:02:46.204Z,12.10
2017-10-03T07:05:13.630Z,12.10
2017-10-03T07:07:41.848Z,12.10
2017-10-03T07:10:09.423Z,12.10
2017-10-03T07:12:36.872Z,12.20
2017-10-03T07:15:04.323Z,12.20
2017-10-03T07:17:31.767Z,12.30
2017-10-03T07:19:59.234Z,12.30
2017-10-03T07:22:26.690Z,12.30
2017-10-03T07:24:54.152Z,12.30
2017-10-03T07:27:21.615Z,12.30
2017-10-03T07:29:49.071Z,12.40
2017-10-03T07:32:16.537Z,12.40
2017-10-03T07:34:44.116Z,12.40
2017-10-03T07:37:11.571Z,12.50
2017-10-03T07:39:39.023Z,12.50
2017-10-03T07:42:06.487Z,12.60
2017-10-03T07:44:34.695Z,12.60
2017-10-03T07:47:02.136Z,12.60
2017-10-03T07:49:29.691Z,12.70
2017-10-03T07:51:57.984Z,12.80
2017-10-03T07:54:25.439Z,12.80
2017-10-03T07:56:52.884Z,12.80
2017-10-03T07:59:20.353Z,12.90
2017-10-03T08:01:47.808Z,12.90
2017-10-03T08:04:15.277Z,13.00
2017-10-03T08:06:42.717Z,13.10
2017-10-03T08:09:10.180Z,13.20
2017-10-03T08:11:37.666Z,13.30
2017-10-03T08:14:05.099Z,13.30
2017-10-03T08:16:32.556Z,13.40
2017-10-03T08:19:00.017Z,13.50
2017-10-03T08:21:27.467Z,13.60
2017-10-03T08:23:54.932Z,13.90
2017-10-03T08:26:22.368Z,14.30
2017-10-03T08:28:49.951Z,14.30
2017-10-03T08:31:17.390Z,14.40
2017-10-03T08:33:44.847Z,14.30
2017-10-03T08:36:12.307Z,14.50
2017-10-03T08:38:39.747Z,14.90
2017-10-03T08:41:07.239Z,15.40
2017-10-03T08:43:34.707Z,16.00
2017-10-03T08:46:02.180Z,17.60
2017-10-03T08:48:29.639Z,18.30
2017-10-03T08:50:57.101Z,18.30
2017-10-03T08:53:24.536Z,18.80
2017-10-03T08:55:52.007Z,19.10
2017-10-03T08:58:19.475Z,19.60
2017-10-03T09:00:47.702Z,18.70
2017-10-03T09:03:15.162Z,18.60
2017-10-03T09:05:42.609Z,18.70
2017-10-03T09:08:10.072Z,19.00
2017-10-03T09:10:37.523Z,18.40
2017-10-03T09:13:04.999Z,18.70
2017-10-03T09:15:32.460Z,18.70
2017-10-03T09:17:59.909Z,19.00
2017-10-03T09:20:27.519Z,19.30
2017-10-03T09:22:55.741Z,19.60
2017-10-03T09:25:23.191Z,19.60
2017-10-03T09:27:50.674Z,20.10
2017-10-03T09:30:18.138Z,19.50
2017-10-03T09:32:45.584Z,19.00
2017-10-03T09:35:13.059Z,19.10
2017-10-03T09:37:40.499Z,18.40
2017-10-03T09:40:07.983Z,17.60
2017-10-03T09:42:36.221Z,17.50
2017-10-03T09:45:03.668Z,17.50
2017-10-03T09:47:31.169Z,17.90
2017-10-03T09:49:58.604Z,18.00
2017-10-03T09:52:26.075Z,17.40
2017-10-03T09:54:54.303Z,16.60
2017-10-03T09:57:21.780Z,16.60
2017-10-03T09:59:49.313Z,16.10
2017-10-03T10:02:16.765Z,15.90
2017-10-03T10:04:44.243Z,16.70
2017-10-03T10:07:11.704Z,18.10
2017-10-03T10:09:39.160Z,18.40
2017-10-03T10:12:06.608Z,18.40
2017-10-03T10:14:34.063Z,18.20
2017-10-03T10:17:01.559Z,17.70
2017-10-03T10:19:29.794Z,17.10
2017-10-03T10:21:57.247Z,17.10
2017-10-03T10:24:24.729Z,16.80
2017-10-03T10:26:52.203Z,16.40
2017-10-03T10:29:20.417Z,15.70
2017-10-03T10:31:47.899Z,15.70
2017-10-03T10:34:15.372Z,15.20
2017-10-03T10:36:42.859Z,14.90
2017-10-03T10:39:11.220Z,14.90
2017-10-03T10:41:39.458Z,15.00
2017-10-03T10:44:06.891Z,15.00
2017-10-03T10:46:34.354Z,15.10
2017-10-03T10:49:01.831Z,15.50
2017-10-03T10:51:29.284Z,16.00
2017-10-03T10:53:56.737Z,16.20
2017-10-03T10:56:24.197Z,16.20
2017-10-03T10:58:51.659Z,15.90
2017-10-03T11:01:19.111Z,15.90
2017-10-03T11:03:47.351Z,15.70
2017-10-03T11:06:14.800Z,15.70
2017-10-03T11:08:42.259Z,15.60
2017-10-03T11:11:09.700Z,15.50
2017-10-03T11:13:37.175Z,15.60
2017-10-03T11:16:04.624Z,15.60
2017-10-03T11:18:32.120Z,15.60
2017-10-03T11:20:59.583Z,15.50
2017-10-03T11:23:38.899Z,15.50
2017-10-03T11:26:06.390Z,15.50
2017-10-03T11:28:33.860Z,15.40
2017-10-03T11:31:02.153Z,15.60
2017-10-03T11:33:30.353Z,16.00
2017-10-03T11:35:57.817Z,15.90
2017-10-03T11:38:25.264Z,16.40
2017-10-03T11:40:52.739Z,16.90
2017-10-03T11:43:20.172Z,17.50
2017-10-03T11:45:47.698Z,18.40
2017-10-03T11:48:15.929Z,17.70
2017-10-03T11:50:43.368Z,17.70
2017-10-03T11:53:10.836Z,17.60
2017-10-03T11:55:39.056Z,17.00
2017-10-03T11:58:07.263Z,16.80
2017-10-03T12:00:34.713Z,16.80
2017-10-03T12:03:02.236Z,16.80
2017-10-03T12:05:29.711Z,17.00
2017-10-03T12:07:58.035Z,17.30
2017-10-03T12:10:25.512Z,17.30
2017-10-03T12:12:52.951Z,17.40
2017-10-03T12:15:21.167Z,17.10
2017-10-03T12:17:49.385Z,17.60
2017-10-03T12:20:16.854Z,17.60
2017-10-03T12:22:44.314Z,17.90
2017-10-03T12:25:11.768Z,17.70
2017-10-03T12:27:39.226Z,17.40
2017-10-03T12:30:06.672Z,17.30
2017-10-03T12:32:34.128Z,16.90
2017-10-03T12:35:01.573Z,16.60
2017-10-03T12:37:29.035Z,16.50
2017-10-03T12:39:56.490Z,16.80
2017-10-03T12:42:23.948Z,17.20
2017-10-03T12:44:51.404Z,16.90
2017-10-03T12:47:18.856Z,16.30
2017-10-03T12:49:46.311Z,16.10
2017-10-03T12:52:13.746Z,15.90
2017-10-03T12:54:41.205Z,15.70
2017-10-03T12:57:08.643Z,15.50
2017-10-03T12:59:36.872Z,15.60
2017-10-03T13:02:04.345Z,15.60
2017-10-03T13:04:31.802Z,15.60
2017-10-03T13:06:59.340Z,15.40
2017-10-03T13:09:26.800Z,15.70
2017-10-03T13:11:54.242Z,15.80
2017-10-03T13:14:21.684Z,16.00
2017-10-03T13:16:49.140Z,16.10
2017-10-03T13:19:16.579Z,16.10
2017-10-03T13:21:44.044Z,16.40
2017-10-03T13:24:11.491Z,16.70
2017-10-03T13:26:38.961Z,16.90
2017-10-03T13:29:06.426Z,17.10
2017-10-03T13:31:33.961Z,17.50
2017-10-03T13:34:01.433Z,18.10
2017-10-03T13:36:28.871Z,18.80
2017-10-03T13:38:56.336Z,19.10
2017-10-03T13:41:23.769Z,19.50
2017-10-03T13:43:51.996Z,20.10
2017-10-03T13:46:19.464Z,20.10
2017-10-03T13:48:46.906Z,19.50
2017-10-03T13:51:14.371Z,18.80
2017-10-03T13:53:41.833Z,18.10
2017-10-03T13:56:09.288Z,17.70
2017-10-03T13:58:36.762Z,17.30
2017-10-03T14:01:04.239Z,17.10
2017-10-03T14:03:32.455Z,17.00
2017-10-03T14:05:59.935Z,16.90
2017-10-03T14:08:27.379Z,16.90
2017-10-03T14:10:55.608Z,16.70
2017-10-03T14:13:23.832Z,17.30
2017-10-03T14:15:51.818Z,17.30
2017-10-03T14:18:19.305Z,18.50
2017-10-03T14:20:46.734Z,19.50
2017-10-03T14:23:14.188Z,20.20
2017-10-03T14:25:41.720Z,20.10
2017-10-03T14:28:09.197Z,20.30
2017-10-03T14:30:36.657Z,20.30
2017-10-03T14:33:04.128Z,20.40
2017-10-03T14:35:31.595Z,19.60
2017-10-03T14:37:59.824Z,19.00
2017-10-03T14:40:27.343Z,19.00
2017-10-03T14:42:54.781Z,18.20
2017-10-03T14:45:23.028Z,17.60
2017-10-03T14:47:50.472Z,17.60
2017-10-03T14:50:17.964Z,17.50
2017-10-03T14:52:46.203Z,17.50
2017-10-03T14:55:13.659Z,17.50
2017-10-03T14:57:41.857Z,17.10
2017-10-03T15:00:09.411Z,17.10
2017-10-03T15:02:36.864Z,17.20
2017-10-03T15:05:04.327Z,17.60
2017-10-03T15:07:31.804Z,17.80
2017-10-03T15:10:00.028Z,18.10
2017-10-03T15:12:27.477Z,18.00
2017-10-03T15:14:54.950Z,17.80
2017-10-03T15:17:22.383Z,17.40
2017-10-03T15:19:49.824Z,17.00
2017-10-03T15:22:17.288Z,17.00
2017-10-03T15:24:44.729Z,16.90
2017-10-03T15:27:12.207Z,16.90
2017-10-03T15:29:40.124Z,16.90
2017-10-03T15:32:08.348Z,16.80
2017-10-03T15:34:35.809Z,16.80
2017-10-03T15:37:03.299Z,16.80
2017-10-03T15:39:30.797Z,16.80
2017-10-03T15:41:58.245Z,16.90
2017-10-03T15:44:25.708Z,17.00
2017-10-03T15:46:53.160Z,17.00
2017-10-03T15:49:20.624Z,16.90
2017-10-03T15:51:48.087Z,16.90
2017-10-03T15:54:15.548Z,16.80
2017-10-03T15:56:43.643Z,16.80
2017-10-03T15:59:11.102Z,16.80
2017-10-03T16:01:38.580Z,16.70
2017-10-03T16:04:06.009Z,16.70
2017-10-03T16:06:33.486Z,16.60
2017-10-03T16:09:00.956Z,16.50
2017-10-03T16:11:28.449Z,16.50
2017-10-03T16:13:55.908Z,16.60
2017-10-03T16:16:23.357Z,16.70
2017-10-03T16:18:50.844Z,16.60
2017-10-03T16:21:18.293Z,16.50
2017-10-03T16:23:45.757Z,16.50
2017-10-03T16:26:13.715Z,16.50
2017-10-03T16:28:41.183Z,16.40
2017-10-03T16:31:08.620Z,16.30
2017-10-03T16:33:36.096Z,16.30
2017-10-03T16:36:03.595Z,16.20
2017-10-03T16:38:31.888Z,16.00
2017-10-03T16:40:59.354Z,16.00
2017-10-03T16:43:26.789Z,15.90
2017-10-03T16:45:55.028Z,15.80
2017-10-03T16:48:22.532Z,15.80
2017-10-03T16:50:50.014Z,15.80
2017-10-03T16:53:17.523Z,15.80
2017-10-03T16:55:45.740Z,15.80
2017-10-03T16:58:13.187Z,15.80
2017-10-03T17:00:40.627Z,15.80
2017-10-03T17:03:08.096Z,15.70
2017-10-03T17:05:36.023Z,15.70
2017-10-03T17:08:03.473Z,15.60
2017-10-03T17:10:30.955Z,15.60
2017-10-03T17:12:59.172Z,15.60
2017-10-03T17:15:26.643Z,15.50
2017-10-03T17:17:54.203Z,15.40
2017-10-03T17:20:21.654Z,15.30
2017-10-03T17:22:49.091Z,15.30
2017-10-03T17:25:16.607Z,15.20
2017-10-03T17:27:44.832Z,15.10
2017-10-03T17:30:12.279Z,15.10
2017-10-03T17:32:39.763Z,15.20
2017-10-03T17:35:07.226Z,15.20
2017-10-03T17:37:34.700Z,15.10
2017-10-03T17:40:02.906Z,15.20
2017-10-03T17:42:30.403Z,15.20
2017-10-03T17:44:57.972Z,15.10
2017-10-03T17:47:25.445Z,15.10
2017-10-03T17:49:52.867Z,15.00
2017-10-03T17:52:20.363Z,15.10
2017-10-03T17:54:48.575Z,14.90
2017-10-03T17:57:16.040Z,14.90
2017-10-03T17:59:43.592Z,14.70
2017-10-03T18:02:11.032Z,14.70
2017-10-03T18:04:38.543Z,14.70
2017-10-03T18:07:06.015Z,14.70
2017-10-03T18:09:33.544Z,14.60
2017-10-03T18:12:01.062Z,14.50
2017-10-03T18:14:28.633Z,14.40
2017-10-03T18:16:56.301Z,14.20
2017-10-03T18:19:24.062Z,14.20
2017-10-03T18:21:52.539Z,14.10
2017-10-03T18:24:20.360Z,14.10
2017-10-03T18:26:48.120Z,14.10
2017-10-03T18:29:16.702Z,14.00
2017-10-03T18:31:44.470Z,14.00
2017-10-03T18:34:12.207Z,14.00
2017-10-03T18:36:39.979Z,13.90
2017-10-03T18:39:08.504Z,13.80
2017-10-03T18:41:36.351Z,13.80
2017-10-03T18:44:04.122Z,13.80
2017-10-03T18:46:31.911Z,13.90
2017-10-03T18:48:59.693Z,13.90
2017-10-03T18:51:27.500Z,13.90
2017-10-03T18:53:55.245Z,13.90
2017-10-03T18:56:23.862Z,13.90
2017-10-03T18:58:51.611Z,13.90
2017-10-03T19:01:19.364Z,13.80
2017-10-03T19:03:47.169Z,13.90
2017-10-03T19:06:14.954Z,13.80
2017-10-03T19:08:43.618Z,13.90
2017-10-03T19:11:11.334Z,14.00
2017-10-03T19:13:39.155Z,14.00
2017-10-03T19:16:06.951Z,14.10
2017-10-03T19:18:36.049Z,14.10
2017-10-03T19:21:04.618Z,14.00
2017-10-03T19:23:32.454Z,14.00
2017-10-03T19:26:00.259Z,13.90
2017-10-03T19:28:28.792Z,13.90
2017-10-03T19:30:56.539Z,13.90
2017-10-03T19:33:24.321Z,13.80
2017-10-03T19:35:52.081Z,13.80
2017-10-03T19:38:19.847Z,13.80
2017-10-03T19:40:47.611Z,13.80
2017-10-03T19:43:15.364Z,13.80
2017-10-03T19:45:43.108Z,13.70
2017-10-03T19:48:10.910Z,13.70
2017-10-03T19:50:38.657Z,13.80
2017-10-03T19:53:06.438Z,13.70
2017-10-03T19:55:34.203Z,13.70
2017-10-03T19:58:01.961Z,13.60
2017-10-03T20:00:29.744Z,13.70
2017-10-03T20:02:57.480Z,13.60
2017-10-03T20:05:25.110Z,13.40
2017-10-03T20:07:53.389Z,13.40
2017-10-03T20:10:21.642Z,13.40
2017-10-03T20:12:49.084Z,13.40
2017-10-03T20:15:16.540Z,13.50
2017-10-03T20:17:43.999Z,13.40
2017-10-03T20:20:11.457Z,13.20
2017-10-03T20:22:38.913Z,13.10
2017-10-03T20:25:06.359Z,13.00
2017-10-03T20:27:33.877Z,13.00
2017-10-03T20:30:01.336Z,13.10
2017-10-03T20:32:28.811Z,13.10
2017-10-03T20:34:56.260Z,13.10
2017-10-03T20:37:23.726Z,13.10
2017-10-03T20:39:51.184Z,13.10
2017-10-03T20:42:18.653Z,13.10
2017-10-03T20:44:46.099Z,13.00
2017-10-03T20:47:13.540Z,13.00
2017-10-03T20:49:41.003Z,13.00
2017-10-03T20:52:08.456Z,12.90
2017-10-03T20:54:35.920Z,12.90
2017-10-03T20:57:03.360Z,12.80
2017-10-03T20:59:30.824Z,12.80
2017-10-03T21:01:58.291Z,12.70
2017-10-03T21:04:25.740Z,12.80
2017-10-03T21:06:53.221Z,12.70
2017-10-03T21:09:20.682Z,12.80
2017-10-03T21:11:48.126Z,12.80
2017-10-03T21:14:15.584Z,12.80
2017-10-03T21:16:43.791Z,12.70
2017-10-03T21:19:12.017Z,12.70
2017-10-03T21:21:39.470Z,12.60
2017-10-03T21:24:06.926Z,12.60
2017-10-03T21:26:34.364Z,12.60
2017-10-03T21:29:01.839Z,12.60
2017-10-03T21:31:29.306Z,12.50
2017-10-03T21:33:56.746Z,12.60
2017-10-03T21:36:24.240Z,12.50
2017-10-03T21:38:51.683Z,12.50
2017-10-03T21:41:19.147Z,12.40
2017-10-03T21:43:46.624Z,12.30
2017-10-03T21:46:14.855Z,12.20
2017-10-03T21:48:42.320Z,12.20
2017-10-03T21:51:09.788Z,12.20
2017-10-03T21:53:37.967Z,12.20
2017-10-03T21:56:05.415Z,12.20
2017-10-03T21:58:32.883Z,12.20
2017-10-03T22:01:00.331Z,12.10
2017-10-03T22:03:27.795Z,12.20
2017-10-03T22:05:55.260Z,12.20
2017-10-03T22:08:22.711Z,12.20
2017-10-03T22:10:50.172Z,12.20
2017-10-03T22:13:17.615Z,12.10
2017-10-03T22:15:45.078Z,12.00
2017-10-03T22:18:12.525Z,12.00
2017-10-03T22:20:40.008Z,12.00
2017-10-03T22:23:08.311Z,11.90
2017-10-03T22:25:36.215Z,11.90
2017-10-03T22:28:03.672Z,11.90
2017-10-03T22:30:31.111Z,11.90
2017-10-03T22:32:58.576Z,11.90
2017-10-03T22:35:26.018Z,11.80
2017-10-03T22:37:53.460Z,11.80
2017-10-03T22:40:20.929Z,11.80
2017-10-03T22:42:48.392Z,11.70
2017-10-03T22:45:15.851Z,11.70
2017-10-03T22:47:43.315Z,11.70
2017-10-03T22:50:10.756Z,11.70
2017-10-03T22:52:38.227Z,11.80
2017-10-03T22:55:05.707Z,11.80
2017-10-03T22:57:33.165Z,11.70
2017-10-03T23:00:00.608Z,11.70
2017-10-03T23:02:28.051Z,11.70
2017-10-03T23:04:56.159Z,11.70
2017-10-03T23:07:24.387Z,11.80
2017-10-03T23:09:51.843Z,11.80
2017-10-03T23:12:19.306Z,11.70
2017-10-03T23:14:46.768Z,11.70
2017-10-03T23:17:14.229Z,11.70
2017-10-03T23:19:41.680Z,11.60
2017-10-03T23:22:09.879Z,11.60
2017-10-03T23:24:37.332Z,11.60
2017-10-03T23:27:04.787Z,11.50
2017-10-03T23:29:32.227Z,11.50
2017-10-03T23:31:59.776Z,11.50
2017-10-03T23:34:27.220Z,11.40
2017-10-03T23:36:54.698Z,11.40
2017-10-03T23:39:22.148Z,11.30
2017-10-03T23:41:49.596Z,11.30
2017-10-03T23:44:17.068Z,11.20
2017-10-03T23:46:44.528Z,11.30
2017-10-03T23:49:11.964Z,11.20
2017-10-03T23:51:39.397Z,11.10
2017-10-03T23:54:06.857Z,11.00
2017-10-03T23:56:34.380Z,10.90
2017-10-03T23:59:02.587Z,10.90
